Time;durP1;ratioP1;P1;durP2;ratioP2;P2;SDS_P1;SDS_P2;PMS_P1;PMS_P2;Temp;Humidity;BMP_temperature;BMP_pressure;BME280_temperature;BME280_humidity;BME280_pressure;Samples;Min_cycle;Max_cycle;Signal;HPM_P1;HPM_P2
2024/01/07 00:02:58;;;;;;;3.35;1.08;;;;;;;7.18;68.30;99978.19;10421757;28;20052;-61
2024/01/07 00:07:59;;;;;;;3.22;1.52;;;;;;;7.11;68.59;99980.69;10404982;28;20132;-62
2024/01/07 00:13:01;;;;;;;3.25;1.35;;;;;;;7.05;67.75;99982.19;10420901;28;20045;-61
2024/01/07 00:18:02;;;;;;;3.45;1.63;;;;;;;6.91;68.23;99974.75;10419517;28;20072;-62
2024/01/07 00:23:04;;;;;;;3.47;2.10;;;;;;;6.99;68.28;99977.47;10423059;28;20051;-61
2024/01/07 00:28:05;;;;;;;3.83;1.45;;;;;;;6.95;68.18;99984.97;10423203;28;20137;-62
2024/01/07 00:33:07;;;;;;;2.78;1.00;;;;;;;6.88;68.80;99993.81;10419345;28;20547;-61
2024/01/07 00:38:08;;;;;;;2.97;1.23;;;;;;;6.92;67.72;99995.97;10420922;28;20046;-61
2024/01/07 00:43:10;;;;;;;2.75;1.05;;;;;;;6.81;67.99;99990.91;10417589;28;20044;-61
2024/01/07 00:48:12;;;;;;;3.17;1.05;;;;;;;6.82;68.22;99997.94;10425131;28;20161;-63
2024/01/07 00:53:13;;;;;;;1.63;1.10;;;;;;;6.86;68.10;99998.47;10464856;28;20052;-62
2024/01/07 00:58:15;;;;;;;1.75;0.85;;;;;;;6.85;68.00;100002.97;10445645;28;20139;-62
2024/01/07 01:03:16;;;;;;;2.47;0.90;;;;;;;6.72;68.45;100008.75;10442290;28;20042;-62
2024/01/07 01:08:18;;;;;;;1.65;0.88;;;;;;;6.82;67.76;100013.97;10439098;28;20060;-63
2024/01/07 01:13:19;;;;;;;2.92;1.10;;;;;;;6.76;67.86;100025.31;10443606;28;20041;-62
2024/01/07 01:18:21;;;;;;;1.65;0.75;;;;;;;6.72;68.30;100027.44;10465982;28;20193;-63
2024/01/07 01:23:22;;;;;;;2.72;1.08;;;;;;;6.77;68.48;100032.31;10441105;28;20056;-64
2024/01/07 01:28:24;;;;;;;1.83;0.80;;;;;;;6.77;67.90;100031.47;10442863;28;20041;-63
2024/01/07 01:33:25;;;;;;;2.25;1.08;;;;;;;6.73;68.34;100033.63;10440911;28;20045;-62
2024/01/07 01:38:27;;;;;;;1.98;0.90;;;;;;;6.69;68.59;100043.78;10434259;28;20137;-63
2024/01/07 01:43:29;;;;;;;2.17;0.65;;;;;;;6.76;68.29;100049.34;10440031;28;20045;-63
2024/01/07 01:48:30;;;;;;;1.85;1.00;;;;;;;6.80;68.26;100047.19;10443440;28;20140;-63
2024/01/07 01:53:33;;;;;;;2.00;1.10;;;;;;;6.85;68.53;100050.22;10441349;28;20045;-63
2024/01/07 01:58:36;;;;;;;1.45;0.80;;;;;;;6.83;67.82;100054.88;10430338;28;20164;-60
2024/01/07 02:03:38;;;;;;;2.45;0.80;;;;;;;6.82;68.42;100051.38;10420648;28;20045;-60
2024/01/07 02:08:40;;;;;;;2.35;1.05;;;;;;;6.73;68.00;100055.84;10399258;28;20054;-60
2024/01/07 02:13:42;;;;;;;1.85;0.70;;;;;;;6.60;68.54;100051.94;10376165;28;20068;-60
2024/01/07 02:18:45;;;;;;;3.92;1.23;;;;;;;6.56;69.02;100056.75;10377855;28;20048;-60
2024/01/07 02:23:47;;;;;;;2.03;1.00;;;;;;;6.52;69.04;100052.72;10376135;28;20062;-60
2024/01/07 02:28:49;;;;;;;4.28;0.80;;;;;;;6.66;69.05;100061.97;10374154;28;20205;-61
2024/01/07 02:33:50;;;;;;;2.72;1.17;;;;;;;6.61;68.95;100050.91;10376268;28;20064;-60
2024/01/07 02:38:53;;;;;;;3.20;1.30;;;;;;;6.68;69.02;100057.31;10373358;28;20041;-60
2024/01/07 02:43:55;;;;;;;2.97;1.00;;;;;;;6.62;69.30;100069.47;10379242;28;20049;-60
2024/01/07 02:48:56;;;;;;;2.58;1.02;;;;;;;6.61;68.83;100070.44;10375869;28;20124;-60
2024/01/07 02:53:59;;;;;;;4.68;1.58;;;;;;;6.51;70.14;100069.72;10375843;28;20056;-60
2024/01/07 02:59:01;;;;;;;4.25;1.55;;;;;;;6.57;69.48;100063.75;10371016;28;20057;-60
2024/01/07 03:04:07;;;;;;;4.30;2.28;;;;;;;6.58;70.21;100061.94;10375514;28;20512;-60
2024/01/07 03:09:10;;;;;;;3.10;1.52;;;;;;;6.50;70.06;100058.19;10377695;28;20387;-61
2024/01/07 03:14:12;;;;;;;5.38;1.58;;;;;;;6.31;70.61;100069.06;10414619;28;20053;-61
2024/01/07 03:19:14;;;;;;;4.95;1.77;;;;;;;6.23;70.80;100069.00;10414079;28;20050;-61
2024/01/07 03:24:16;;;;;;;5.97;1.98;;;;;;;6.12;70.65;100065.59;10413961;28;20041;-61
2024/01/07 03:29:22;;;;;;;5.03;1.70;;;;;;;5.87;71.49;100072.50;10417459;28;20055;-61
2024/01/07 03:34:24;;;;;;;3.72;1.67;;;;;;;5.87;72.33;100077.84;10405817;28;20084;-60
2024/01/07 03:39:36;;;;;;;3.60;1.80;;;;;;;5.80;72.24;100081.28;10424613;28;20578;-61
2024/01/07 03:44:39;;;;;;;3.85;1.30;;;;;;;5.78;71.77;100076.09;10426964;28;20081;-61
2024/01/07 03:49:41;;;;;;;3.95;1.73;;;;;;;5.80;72.26;100081.28;10410980;28;20673;-60
2024/01/07 03:54:43;;;;;;;3.92;1.27;;;;;;;5.93;72.00;100095.06;10418911;28;20052;-60
2024/01/07 03:59:45;;;;;;;5.22;1.45;;;;;;;5.97;71.90;100093.81;10420917;28;20405;-60
2024/01/07 04:04:50;;;;;;;5.85;2.00;;;;;;;6.01;71.68;100089.84;10423953;28;20045;-60
2024/01/07 04:09:53;;;;;;;5.65;2.78;;;;;;;6.05;71.39;100101.88;10423501;28;20033;-60
2024/01/07 04:14:55;;;;;;;6.72;2.90;;;;;;;6.06;72.61;100100.91;10422470;28;20060;-61
2024/01/07 04:19:57;;;;;;;10.23;3.15;;;;;;;6.11;71.62;100095.09;10439248;28;20108;-62
2024/01/07 04:24:59;;;;;;;9.77;3.88;;;;;;;6.11;71.80;100101.28;10442942;28;20056;-62
2024/01/07 04:30:02;;;;;;;12.98;4.47;;;;;;;6.08;72.50;100106.06;10452806;28;20059;-62
2024/01/07 04:35:07;;;;;;;11.35;4.68;;;;;;;6.10;71.91;100107.63;10448357;28;20037;-62
2024/01/07 04:40:12;;;;;;;11.85;5.40;;;;;;;6.11;72.87;100116.44;10433561;28;20037;-61
2024/01/07 04:45:14;;;;;;;13.88;5.68;;;;;;;6.20;72.27;100128.88;10465804;28;20076;-63
2024/01/07 04:50:19;;;;;;;11.77;5.93;;;;;;;6.21;72.34;100129.72;10437285;28;20121;-62
2024/01/07 04:55:21;;;;;;;10.18;5.35;;;;;;;6.24;72.00;100134.72;10434442;28;20041;-62
2024/01/07 05:00:23;;;;;;;12.00;5.75;;;;;;;6.18;72.26;100152.22;10449172;28;20045;-62
2024/01/07 05:05:25;;;;;;;11.57;5.72;;;;;;;6.19;71.89;100148.53;10426341;28;20057;-61
2024/01/07 05:10:27;;;;;;;9.52;5.00;;;;;;;6.20;72.03;100160.06;10434161;28;20055;-62
2024/01/07 05:15:28;;;;;;;13.05;5.85;;;;;;;6.24;71.76;100164.09;10444631;28;20495;-63
2024/01/07 05:20:30;;;;;;;10.25;5.10;;;;;;;6.24;71.71;100172.09;10442701;28;20049;-63
2024/01/07 05:25:31;;;;;;;13.70;6.45;;;;;;;6.36;72.12;100184.25;10433465;28;20136;-63
2024/01/07 05:30:33;;;;;;;11.43;5.32;;;;;;;6.37;72.13;100188.59;10429161;28;20042;-60
2024/01/07 05:35:37;;;;;;;11.00;5.65;;;;;;;6.44;71.63;100194.16;10417689;28;20111;-60
2024/01/07 05:40:39;;;;;;;12.48;6.03;;;;;;;6.48;71.46;100195.53;10418658;28;20048;-60
2024/01/07 05:45:41;;;;;;;6.75;4.00;;;;;;;6.47;71.71;100209.88;10419816;28;20396;-60
2024/01/07 05:50:43;;;;;;;5.55;3.28;;;;;;;6.28;71.77;100225.03;10421515;28;20053;-59
2024/01/07 05:55:45;;;;;;;6.40;3.70;;;;;;;6.24;71.88;100217.47;10393422;28;20049;-59
2024/01/07 06:00:47;;;;;;;7.63;3.85;;;;;;;6.20;71.64;100232.97;10399316;28;20048;-61
2024/01/07 06:05:49;;;;;;;6.22;4.00;;;;;;;6.19;71.95;100243.78;10420906;28;20053;-61
2024/01/07 06:10:54;;;;;;;8.07;4.03;;;;;;;6.26;71.60;100245.72;10416790;28;20045;-59
2024/01/07 06:15:56;;;;;;;8.18;3.97;;;;;;;6.17;71.60;100259.13;10412744;28;20045;-61
2024/01/07 06:20:58;;;;;;;8.98;4.32;;;;;;;6.10;71.26;100266.88;10419484;28;20056;-61
2024/01/07 06:26:00;;;;;;;8.73;3.67;;;;;;;6.06;71.45;100276.16;10418577;28;20118;-60
2024/01/07 06:31:05;;;;;;;9.93;5.32;;;;;;;5.99;71.63;100286.59;10414904;28;20059;-60
2024/01/07 06:36:07;;;;;;;8.40;4.10;;;;;;;5.92;71.57;100297.00;10414987;28;20681;-61
2024/01/07 06:41:11;;;;;;;9.07;4.85;;;;;;;5.81;71.49;100301.69;10443905;28;20074;-63
2024/01/07 06:46:12;;;;;;;10.02;4.50;;;;;;;5.71;71.63;100307.03;10435851;28;22406;-63
2024/01/07 06:51:14;;;;;;;11.02;5.28;;;;;;;5.68;71.38;100312.66;10455331;28;20048;-62
2024/01/07 06:56:16;;;;;;;9.93;4.88;;;;;;;5.67;70.40;100333.16;10449715;28;20044;-62
2024/01/07 07:01:21;;;;;;;12.77;5.55;;;;;;;5.68;70.93;100334.81;10474604;28;20032;-62
2024/01/07 07:06:24;;;;;;;10.00;4.82;;;;;;;5.63;71.17;100344.22;10478886;28;20048;-62
2024/01/07 07:11:25;;;;;;;11.80;4.65;;;;;;;5.56;70.44;100338.66;10481956;28;20041;-62
2024/01/07 07:16:27;;;;;;;10.23;5.43;;;;;;;5.52;70.21;100358.59;10481685;28;20089;-62
2024/01/07 07:21:28;;;;;;;8.90;3.92;;;;;;;5.54;69.97;100369.94;10479783;28;20037;-70
2024/01/07 07:26:30;;;;;;;10.27;4.82;;;;;;;5.62;69.88;100371.91;10422953;28;20104;-68
2024/01/07 07:31:31;;;;;;;11.20;4.40;;;;;;;5.62;70.31;100385.22;10409432;28;20041;-68
2024/01/07 07:36:33;;;;;;;14.82;4.63;;;;;;;5.60;69.60;100396.03;10427537;28;20041;-68
2024/01/07 07:41:34;;;;;;;12.00;5.50;;;;;;;5.60;69.47;100406.69;10420178;28;20127;-68
2024/01/07 07:46:36;;;;;;;12.00;5.22;;;;;;;5.57;69.94;100410.50;10423613;28;20052;-68
2024/01/07 07:51:38;;;;;;;11.77;5.78;;;;;;;5.51;69.63;100410.22;10405762;28;20470;-69
2024/01/07 07:56:40;;;;;;;14.43;6.97;;;;;;;5.50;70.40;100420.03;10420785;28;20053;-68
2024/01/07 08:01:41;;;;;;;20.35;7.43;;;;;;;5.51;69.94;100434.19;10421512;28;20049;-69
2024/01/07 08:06:44;;;;;;;18.13;8.85;;;;;;;5.52;69.49;100435.91;10421993;28;20076;-69
2024/01/07 08:11:46;;;;;;;17.85;7.15;;;;;;;5.48;70.34;100447.84;10419704;28;20132;-69
2024/01/07 08:16:47;;;;;;;18.98;8.18;;;;;;;5.39;70.15;100456.66;10420939;28;20522;-69
2024/01/07 08:21:49;;;;;;;17.65;6.82;;;;;;;5.38;69.82;100458.50;10420927;28;20038;-69
2024/01/07 08:26:51;;;;;;;16.77;7.68;;;;;;;5.33;70.38;100466.06;10421905;28;20083;-68
2024/01/07 08:31:53;;;;;;;16.65;7.00;;;;;;;5.35;70.25;100466.75;10422151;28;20041;-68
2024/01/07 08:36:54;;;;;;;17.30;6.90;;;;;;;5.42;70.16;100467.88;10421932;28;20037;-69
2024/01/07 08:41:56;;;;;;;16.40;6.45;;;;;;;5.38;69.57;100476.31;10405434;28;20060;-69
2024/01/07 08:47:00;;;;;;;13.75;6.68;;;;;;;5.35;69.76;100480.06;10427648;28;20036;-68
2024/01/07 08:52:02;;;;;;;12.90;5.32;;;;;;;5.43;70.12;100490.91;10403956;28;20048;-68
2024/01/07 08:57:03;;;;;;;15.23;5.82;;;;;;;5.44;69.44;100499.75;10418615;28;20041;-69
2024/01/07 09:02:05;;;;;;;14.55;6.07;;;;;;;5.53;69.15;100505.09;10420534;28;20099;-69
2024/01/07 09:07:06;;;;;;;11.23;6.15;;;;;;;5.51;69.21;100516.84;10413615;28;20054;-68
2024/01/07 09:12:08;;;;;;;11.73;5.50;;;;;;;5.59;68.64;100513.50;10415446;28;20119;-71
2024/01/07 09:17:10;;;;;;;8.73;4.68;;;;;;;5.61;69.03;100522.19;10407241;28;20052;-70
2024/01/07 09:22:11;;;;;;;6.68;3.67;;;;;;;5.58;68.12;100536.66;10414313;28;20055;-70
2024/01/07 09:27:14;;;;;;;11.60;3.70;;;;;;;5.56;68.01;100547.44;10413165;28;20049;-70
2024/01/07 09:32:15;;;;;;;8.40;4.00;;;;;;;5.58;68.46;100552.66;10396089;28;20045;-72
2024/01/07 09:37:17;;;;;;;10.75;3.95;;;;;;;5.51;67.64;100570.19;10412586;28;20045;-68
2024/01/07 09:42:19;;;;;;;6.28;3.28;;;;;;;5.50;67.96;100565.84;10421168;28;20095;-68
2024/01/07 09:47:20;;;;;;;5.93;3.22;;;;;;;5.38;67.82;100570.44;10417277;28;20056;-67
2024/01/07 09:52:22;;;;;;;10.13;4.35;;;;;;;5.33;67.31;100570.88;10399806;28;20051;-69
2024/01/07 09:57:23;;;;;;;7.00;3.88;;;;;;;5.45;67.42;100570.72;10413504;28;20038;-70
2024/01/07 10:02:25;;;;;;;7.35;3.50;;;;;;;5.49;67.68;100572.13;10412752;28;20452;-70
2024/01/07 10:07:26;;;;;;;7.78;4.18;;;;;;;5.51;66.68;100578.19;10417447;28;20234;-70
2024/01/07 10:12:28;;;;;;;7.25;4.72;;;;;;;5.45;66.96;100581.38;10411952;28;20123;-71
2024/01/07 10:17:29;;;;;;;6.90;4.57;;;;;;;5.40;66.64;100583.66;10420534;28;20052;-70
2024/01/07 10:22:31;;;;;;;8.80;4.97;;;;;;;5.38;66.68;100585.59;10418729;28;20075;-70
2024/01/07 10:27:36;;;;;;;9.25;4.75;;;;;;;5.41;66.46;100590.66;10418776;28;20181;-70
2024/01/07 10:32:38;;;;;;;8.80;4.97;;;;;;;5.25;66.96;100592.03;10415387;28;20440;-69
2024/01/07 10:37:45;;;;;;;8.73;4.57;;;;;;;5.20;67.09;100588.91;10417310;28;20045;-71
2024/01/07 10:42:48;;;;;;;7.32;3.95;;;;;;;5.21;66.52;100590.59;10415932;28;20134;-70
2024/01/07 10:47:53;;;;;;;6.50;3.75;;;;;;;5.15;66.61;100591.13;10419681;28;20064;-70
2024/01/07 10:53:07;;;;;;;9.48;4.75;;;;;;;5.27;66.26;100589.22;10413009;28;20131;-69
2024/01/07 10:58:09;;;;;;;8.23;4.38;;;;;;;5.21;66.20;100592.41;10415725;28;20056;-70
2024/01/07 11:03:18;;;;;;;10.43;4.78;;;;;;;5.20;66.28;100594.25;10418041;28;20079;-69
2024/01/07 11:08:23;;;;;;;6.93;3.80;;;;;;;5.12;66.43;100602.06;10415393;28;20092;-70
2024/01/07 11:13:38;;;;;;;9.57;4.18;;;;;;;5.27;65.51;100602.53;10378864;28;20511;-70
2024/01/07 11:19:02;;;;;;;8.32;4.60;;;;;;;5.23;65.99;100607.28;10416078;28;20577;-68
2024/01/07 11:24:04;;;;;;;7.97;4.30;;;;;;;5.18;65.78;100614.84;10413941;28;20369;-70
2024/01/07 11:29:08;;;;;;;7.35;3.88;;;;;;;5.14;65.48;100616.09;10410629;28;20037;-71
2024/01/07 11:34:10;;;;;;;11.23;4.57;;;;;;;5.09;65.01;100620.97;10413115;28;20045;-70
2024/01/07 11:39:13;;;;;;;6.80;3.33;;;;;;;5.00;65.72;100616.47;10438576;28;20036;-67
2024/01/07 11:44:14;;;;;;;7.18;4.22;;;;;;;4.92;65.61;100625.13;10439760;28;20038;-69
2024/01/07 11:49:17;;;;;;;7.78;4.05;;;;;;;4.88;65.31;100621.88;10447069;28;20049;-66
2024/01/07 11:54:18;;;;;;;6.82;3.20;;;;;;;4.88;65.47;100627.22;10447418;28;20080;-67
2024/01/07 11:59:20;;;;;;;10.93;4.35;;;;;;;4.91;65.41;100628.75;10462847;28;20053;-67
2024/01/07 12:04:21;;;;;;;9.80;4.20;;;;;;;5.01;65.05;100631.47;10465341;28;20128;-67
2024/01/07 12:09:24;;;;;;;10.32;4.25;;;;;;;5.00;65.00;100627.97;10454726;28;20050;-66
2024/01/07 12:14:26;;;;;;;13.50;4.70;;;;;;;5.08;64.60;100636.13;10474798;28;20029;-67
2024/01/07 12:19:28;;;;;;;16.42;4.93;;;;;;;5.17;64.98;100631.81;10450357;28;20143;-67
2024/01/07 12:24:30;;;;;;;8.70;3.10;;;;;;;4.99;64.77;100644.06;10459998;28;20131;-67
2024/01/07 12:29:32;;;;;;;7.10;3.28;;;;;;;4.99;65.08;100636.09;10464443;28;20049;-68
2024/01/07 12:34:33;;;;;;;10.88;4.63;;;;;;;5.04;64.83;100648.03;10435931;28;20104;-69
2024/01/07 12:39:35;;;;;;;7.22;3.60;;;;;;;4.83;64.91;100652.53;10442324;28;20117;-66
2024/01/07 12:44:36;;;;;;;7.68;3.35;;;;;;;4.74;65.12;100657.69;10445883;28;20049;-65
2024/01/07 12:49:38;;;;;;;6.63;3.17;;;;;;;4.66;64.51;100660.16;10417032;28;20133;-70
2024/01/07 12:54:40;;;;;;;6.75;3.58;;;;;;;4.67;64.51;100671.66;10405970;28;20071;-68
2024/01/07 12:59:41;;;;;;;8.73;3.60;;;;;;;4.67;64.35;100677.81;10403550;28;20111;-72
2024/01/07 13:04:43;;;;;;;4.55;2.53;;;;;;;4.57;64.67;100685.72;10415836;28;20041;-70
2024/01/07 13:09:44;;;;;;;7.28;2.80;;;;;;;4.59;64.62;100682.09;10400100;28;20130;-69
2024/01/07 13:14:46;;;;;;;5.78;2.47;;;;;;;4.55;64.44;100689.50;10391139;28;20051;-70
2024/01/07 13:19:48;;;;;;;6.40;2.70;;;;;;;4.50;64.82;100697.00;10399409;28;20155;-71
2024/01/07 13:24:50;;;;;;;7.75;3.22;;;;;;;4.44;63.85;100703.69;10417569;28;20132;-70
2024/01/07 13:29:51;;;;;;;9.20;2.80;;;;;;;4.30;64.20;100709.31;10422810;28;20496;-71
2024/01/07 13:34:53;;;;;;;5.60;2.95;;;;;;;4.26;64.08;100718.53;10404188;28;20632;-71
2024/01/07 13:39:54;;;;;;;6.68;2.40;;;;;;;4.21;64.01;100728.72;10395344;28;20084;-71
2024/01/07 13:44:56;;;;;;;4.72;2.40;;;;;;;4.15;63.96;100719.41;10421019;28;20076;-71
2024/01/07 13:49:57;;;;;;;7.35;2.35;;;;;;;4.22;63.22;100725.06;10422178;28;20045;-71
2024/01/07 13:54:59;;;;;;;4.63;2.22;;;;;;;4.18;63.08;100727.97;10411724;28;20056;-70
2024/01/07 14:00:05;;;;;;;5.38;2.55;;;;;;;4.21;62.75;100745.53;10450817;28;20104;-67
2024/01/07 14:05:08;;;;;;;5.75;2.47;;;;;;;4.20;62.99;100742.97;10464644;28;20045;-68
2024/01/07 14:10:10;;;;;;;4.68;1.85;;;;;;;4.06;63.33;100746.75;10461256;28;20121;-68
2024/01/07 14:15:12;;;;;;;4.65;2.03;;;;;;;3.90;63.29;100763.09;10462811;28;20051;-68
2024/01/07 14:20:13;;;;;;;6.13;2.42;;;;;;;3.81;62.75;100774.47;10465659;28;20067;-69
2024/01/07 14:25:15;;;;;;;4.20;2.28;;;;;;;3.76;63.07;100775.69;10461982;28;20139;-69
2024/01/07 14:30:16;;;;;;;4.10;2.15;;;;;;;3.67;63.45;100783.53;10463328;28;20041;-69
2024/01/07 14:35:18;;;;;;;3.08;1.48;;;;;;;3.62;63.00;100793.69;10443930;28;20076;-68
2024/01/07 14:40:19;;;;;;;5.10;1.83;;;;;;;3.51;62.98;100805.97;10460334;28;20055;-68
2024/01/07 14:45:21;;;;;;;6.80;1.55;;;;;;;3.40;63.00;100805.13;10429161;28;20084;-68
2024/01/07 14:50:22;;;;;;;3.63;1.25;;;;;;;3.35;62.99;100816.13;10461474;28;20057;-68
2024/01/07 14:55:34;;;;;;;1.83;0.90;;;;;;;3.29;62.54;100816.59;10463908;28;20104;-70
2024/01/07 15:00:36;;;;;;;2.83;1.33;;;;;;;3.23;62.46;100817.91;10454643;28;20033;-69
2024/01/07 15:05:38;;;;;;;1.25;0.95;;;;;;;3.19;62.29;100840.34;10460548;28;20052;-68
2024/01/07 15:10:41;;;;;;;5.05;0.70;;;;;;;2.93;62.24;100845.81;10403145;28;20041;-73
2024/01/07 15:15:42;;;;;;;1.27;0.60;;;;;;;2.76;62.35;100864.78;10416700;28;20124;-71
2024/01/07 15:20:45;;;;;;;0.70;0.52;;;;;;;2.65;61.83;100870.06;10403122;28;20413;-71
2024/01/07 15:25:46;;;;;;;2.85;0.60;;;;;;;2.53;61.53;100883.25;10408975;28;20049;-72
2024/01/07 15:30:48;;;;;;;0.73;0.50;;;;;;;2.55;61.72;100896.41;10405079;28;20041;-71
2024/01/07 15:35:49;;;;;;;9.18;0.77;;;;;;;2.45;61.05;100901.53;10419703;28;20485;-70
2024/01/07 15:40:51;;;;;;;1.00;0.60;;;;;;;2.35;61.29;100897.81;10409803;28;20032;-71
2024/01/07 15:45:52;;;;;;;2.15;0.45;;;;;;;2.24;61.19;100916.31;10423366;28;20041;-71
2024/01/07 15:50:54;;;;;;;0.90;0.45;;;;;;;2.18;61.45;100925.56;10420779;28;20037;-70
2024/01/07 15:55:55;;;;;;;1.27;0.60;;;;;;;2.08;61.14;100924.50;10419199;28;20052;-72
2024/01/07 16:01:00;;;;;;;1.75;1.65;;;;;;;2.01;60.64;100937.31;10420244;28;20045;-70
2024/01/07 16:06:02;;;;;;;3.20;0.60;;;;;;;1.93;60.97;100950.25;10402768;28;20044;-71
2024/01/07 16:11:04;;;;;;;3.17;0.60;;;;;;;1.95;60.25;100954.50;10425147;28;20064;-72
2024/01/07 16:16:06;;;;;;;1.05;0.60;;;;;;;2.02;60.30;100965.56;10431658;28;20064;-72
2024/01/07 16:21:09;;;;;;;1.10;0.50;;;;;;;1.88;60.73;100978.91;10415812;28;20364;-73
2024/01/07 16:26:11;;;;;;;0.98;0.52;;;;;;;1.83;61.25;100984.50;10409338;28;20052;-72
2024/01/07 16:31:12;;;;;;;1.17;0.40;;;;;;;1.83;60.62;100991.63;10427845;28;20515;-72
2024/01/07 16:36:14;;;;;;;1.02;0.32;;;;;;;1.77;60.24;100992.88;10429117;28;20131;-73
2024/01/07 16:41:15;;;;;;;0.70;0.40;;;;;;;1.70;59.78;101003.03;10424393;28;20510;-73
2024/01/07 16:46:18;;;;;;;0.63;0.38;;;;;;;1.62;59.98;101018.63;10430844;28;20496;-72
2024/01/07 16:51:20;;;;;;;0.93;0.50;;;;;;;1.53;59.72;101027.16;10442426;28;20109;-73
2024/01/07 16:56:21;;;;;;;1.02;0.30;;;;;;;1.44;59.69;101018.00;10433573;28;20091;-73
2024/01/07 17:01:25;;;;;;;0.65;0.32;;;;;;;1.47;59.95;101014.31;10418350;28;20041;-73
2024/01/07 17:06:26;;;;;;;1.05;0.40;;;;;;;1.49;59.57;101015.91;10438725;28;20140;-72
2024/01/07 17:11:28;;;;;;;1.35;0.40;;;;;;;1.53;59.29;101035.94;10436971;28;20125;-73
2024/01/07 17:16:30;;;;;;;1.80;0.30;;;;;;;1.54;58.82;101036.78;10422823;28;20045;-71
2024/01/07 17:21:31;;;;;;;0.63;0.30;;;;;;;1.60;58.62;101036.41;10399366;28;20057;-70
2024/01/07 17:26:33;;;;;;;1.38;0.38;;;;;;;1.72;58.77;101038.25;10423787;28;20108;-72
2024/01/07 17:31:35;;;;;;;0.60;0.30;;;;;;;1.71;59.04;101048.94;10433962;28;20049;-72
2024/01/07 17:36:36;;;;;;;0.57;0.30;;;;;;;1.78;58.59;101063.50;10417289;28;20040;-71
2024/01/07 17:41:38;;;;;;;0.73;0.40;;;;;;;1.71;59.05;101068.34;10414261;28;20393;-70
2024/01/07 17:46:40;;;;;;;0.70;0.30;;;;;;;1.63;59.06;101067.16;10391732;28;20044;-69
2024/01/07 17:51:44;;;;;;;0.90;0.40;;;;;;;1.63;58.36;101078.59;10419910;28;20049;-68
2024/01/07 17:56:46;;;;;;;0.95;0.30;;;;;;;1.59;59.11;101077.94;10428205;28;20056;-68
2024/01/07 18:01:48;;;;;;;2.92;0.30;;;;;;;1.54;57.91;101085.34;10402577;28;20069;-68
2024/01/07 18:06:49;;;;;;;2.28;0.30;;;;;;;1.52;58.08;101096.97;10400192;28;20310;-66
2024/01/07 18:11:51;;;;;;;1.10;0.32;;;;;;;1.51;58.07;101096.13;10403241;28;20053;-68
2024/01/07 18:16:54;;;;;;;1.00;0.30;;;;;;;1.58;58.66;101091.31;10405326;28;20174;-67
2024/01/07 18:21:55;;;;;;;1.25;0.40;;;;;;;1.59;57.96;101099.13;10399580;28;20362;-71
2024/01/07 18:26:57;;;;;;;1.55;0.47;;;;;;;1.71;57.79;101099.28;10420275;28;20041;-69
2024/01/07 18:31:59;;;;;;;1.27;0.30;;;;;;;1.75;57.55;101091.03;10413939;28;20057;-70
2024/01/07 18:37:01;;;;;;;1.25;0.40;;;;;;;1.83;57.64;101095.84;10406915;28;20052;-70
2024/01/07 18:42:02;;;;;;;1.23;0.40;;;;;;;1.86;57.33;101102.75;10419586;28;20041;-68
2024/01/07 18:47:04;;;;;;;1.50;1.00;;;;;;;1.92;57.81;101108.47;10418117;28;20128;-69
2024/01/07 18:52:12;;;;;;;1.10;0.40;;;;;;;1.95;57.53;101116.22;10415887;28;20064;-70
2024/01/07 18:57:16;;;;;;;0.80;0.50;;;;;;;1.98;57.44;101108.06;10411170;28;20140;-68
2024/01/07 19:02:17;;;;;;;1.88;0.50;;;;;;;2.04;57.68;101117.44;10407488;28;20136;-67
2024/01/07 19:07:19;;;;;;;2.25;0.40;;;;;;;2.01;57.46;101119.44;10420079;28;20045;-68
2024/01/07 19:12:21;;;;;;;0.52;0.40;;;;;;;2.10;57.43;101119.66;10398758;28;20049;-68
2024/01/07 19:17:22;;;;;;;2.75;0.50;;;;;;;2.16;57.12;101129.88;10404994;28;20205;-68
2024/01/07 19:22:25;;;;;;;3.85;1.38;;;;;;;2.12;57.57;101125.72;10398920;28;20060;-68
2024/01/07 19:27:27;;;;;;;1.75;0.60;;;;;;;2.12;57.50;101119.56;10407234;28;20126;-69
2024/01/07 19:32:28;;;;;;;0.77;0.50;;;;;;;2.20;57.57;101142.94;10409160;28;20056;-68
2024/01/07 19:37:30;;;;;;;1.70;0.38;;;;;;;2.21;57.17;101142.81;10411671;28;20128;-67
2024/01/07 19:42:31;;;;;;;1.48;0.40;;;;;;;2.25;57.25;101132.84;10406902;28;20033;-68
2024/01/07 19:47:33;;;;;;;0.95;0.50;;;;;;;2.27;57.29;101137.13;10404089;28;20041;-67
2024/01/07 19:52:36;;;;;;;3.30;0.40;;;;;;;2.27;56.95;101129.16;10391378;28;20072;-70
2024/01/07 19:57:38;;;;;;;2.33;0.45;;;;;;;2.25;57.09;101140.81;10407328;28;20051;-70
2024/01/07 20:02:40;;;;;;;0.38;0.25;;;;;;;2.24;57.55;101134.66;10407876;28;20053;-70
2024/01/07 20:07:41;;;;;;;1.10;0.45;;;;;;;2.23;57.10;101138.25;10402883;28;20042;-69
2024/01/07 20:12:44;;;;;;;0.68;0.40;;;;;;;2.24;56.94;101142.63;10398961;28;20131;-71
2024/01/07 20:17:45;;;;;;;2.13;0.60;;;;;;;2.22;57.05;101149.00;10397540;28;20055;-70
2024/01/07 20:22:47;;;;;;;1.30;0.60;;;;;;;2.24;56.99;101155.03;10414030;28;20069;-67
2024/01/07 20:27:48;;;;;;;2.10;0.70;;;;;;;2.26;56.74;101150.47;10415959;28;20037;-71
2024/01/07 20:32:50;;;;;;;1.70;0.40;;;;;;;2.30;57.06;101149.31;10420065;28;20658;-69
2024/01/07 20:37:51;;;;;;;1.48;0.60;;;;;;;2.29;56.67;101150.25;10410546;28;20736;-68
2024/01/07 20:42:54;;;;;;;2.50;0.73;;;;;;;2.31;56.97;101143.03;10402355;28;20562;-69
2024/01/07 20:47:55;;;;;;;0.80;0.50;;;;;;;2.30;56.42;101144.84;10410900;28;20083;-69
2024/01/07 20:52:57;;;;;;;1.02;0.47;;;;;;;2.35;56.35;101145.41;10424697;28;20048;-69
2024/01/07 20:57:58;;;;;;;1.50;0.70;;;;;;;2.39;56.39;101154.03;10426134;28;20081;-67
2024/01/07 21:03:00;;;;;;;1.05;0.40;;;;;;;2.36;56.54;101151.56;10403768;28;20055;-71
2024/01/07 21:08:01;;;;;;;0.40;0.22;;;;;;;2.38;56.18;101157.59;10392676;28;20048;-67
2024/01/07 21:13:07;;;;;;;0.30;0.30;;;;;;;2.30;56.59;101151.97;10402973;28;20400;-67
2024/01/07 21:18:11;;;;;;;0.93;0.30;;;;;;;2.34;56.57;101158.78;10406088;28;20041;-70
2024/01/07 21:23:15;;;;;;;2.25;0.40;;;;;;;2.36;55.96;101165.66;10420478;28;20053;-69
2024/01/07 21:28:18;;;;;;;0.43;0.30;;;;;;;2.34;56.05;101154.31;10428335;28;20053;-68
2024/01/07 21:33:19;;;;;;;0.68;0.30;;;;;;;2.29;56.08;101168.81;10425315;28;20281;-70
2024/01/07 21:38:21;;;;;;;4.60;0.90;;;;;;;2.33;56.48;101160.59;10420007;28;20052;-70
2024/01/07 21:43:23;;;;;;;1.10;0.40;;;;;;;2.33;56.16;101167.66;10420746;28;20053;-68
2024/01/07 21:48:26;;;;;;;1.15;0.30;;;;;;;2.37;56.29;101163.88;10411600;28;20048;-67
2024/01/07 21:53:28;;;;;;;0.60;0.30;;;;;;;2.39;56.09;101164.63;10425971;28;20048;-70
2024/01/07 21:58:30;;;;;;;1.35;0.40;;;;;;;2.37;56.52;101171.84;10412357;28;20061;-70
2024/01/07 22:03:32;;;;;;;0.50;0.40;;;;;;;2.43;55.95;101165.25;10411669;28;20037;-69
2024/01/07 22:08:34;;;;;;;0.70;0.30;;;;;;;2.44;56.47;101159.84;10440295;28;20041;-69
2024/01/07 22:13:36;;;;;;;1.58;0.30;;;;;;;2.41;56.38;101168.03;10424496;28;20044;-69
2024/01/07 22:18:38;;;;;;;0.90;0.40;;;;;;;2.44;55.84;101169.63;10422108;28;20055;-69
2024/01/07 22:23:40;;;;;;;0.63;0.30;;;;;;;2.44;56.43;101178.41;10414874;28;20049;-68
2024/01/07 22:28:43;;;;;;;0.65;0.30;;;;;;;2.44;55.96;101189.03;10413260;28;20415;-67
2024/01/07 22:33:46;;;;;;;0.50;0.40;;;;;;;2.43;56.34;101187.34;10399383;28;20280;-67
2024/01/07 22:38:47;;;;;;;0.47;0.30;;;;;;;2.43;56.11;101184.69;10413076;28;20045;-68
2024/01/07 22:43:49;;;;;;;1.48;0.20;;;;;;;2.39;56.16;101180.56;10415516;28;20041;-69
2024/01/07 22:48:51;;;;;;;0.43;0.17;;;;;;;2.34;56.30;101191.44;10398590;28;20065;-67
2024/01/07 22:53:53;;;;;;;0.30;0.20;;;;;;;2.37;56.38;101191.25;10416953;28;20041;-69
2024/01/07 22:58:54;;;;;;;0.25;0.10;;;;;;;2.36;55.79;101184.22;10411723;28;20038;-68
2024/01/07 23:03:56;;;;;;;0.20;0.20;;;;;;;2.38;55.11;101181.50;10417277;28;20052;-72
2024/01/07 23:09:00;;;;;;;0.93;0.60;;;;;;;2.41;55.79;101181.28;10392580;28;20115;-70
2024/01/07 23:14:03;;;;;;;1.33;0.20;;;;;;;2.35;55.89;101186.97;10417478;28;20055;-70
2024/01/07 23:19:05;;;;;;;0.40;0.20;;;;;;;2.31;55.92;101191.66;10413712;28;20060;-71
2024/01/07 23:24:06;;;;;;;0.50;0.25;;;;;;;2.29;55.68;101190.03;10435205;28;20512;-70